createdAt,value
2023-01-09T00:01:22.947Z,6.00
2023-01-09T00:03:51.001Z,6.00
2023-01-09T00:06:20.792Z,6.00
2023-01-09T00:08:48.944Z,6.00
2023-01-09T00:11:17.130Z,6.00
2023-01-09T00:13:45.319Z,6.00
2023-01-09T00:16:13.383Z,6.00
2023-01-09T00:18:41.413Z,6.00
2023-01-09T00:21:10.564Z,6.00
2023-01-09T00:23:40.221Z,6.00
2023-01-09T00:26:08.830Z,6.00
2023-01-09T00:28:37.108Z,6.10
2023-01-09T00:31:06.043Z,6.10
2023-01-09T00:33:35.147Z,6.10
2023-01-09T00:36:03.475Z,6.10
2023-01-09T00:38:31.621Z,6.10
2023-01-09T00:41:01.513Z,6.10
2023-01-09T00:43:32.226Z,6.20
2023-01-09T00:46:03.603Z,6.10
2023-01-09T00:48:31.657Z,6.30
2023-01-09T00:51:00.641Z,6.20
2023-01-09T00:53:30.260Z,6.20
2023-01-09T00:56:02.260Z,6.20
2023-01-09T00:58:32.827Z,6.20
2023-01-09T01:01:01.307Z,6.30
2023-01-09T01:03:29.441Z,6.30
2023-01-09T01:06:16.057Z,6.30
2023-01-09T01:08:44.208Z,6.30
2023-01-09T01:11:13.035Z,6.30
2023-01-09T01:13:42.719Z,6.40
2023-01-09T01:16:11.936Z,6.40
2023-01-09T01:18:40.197Z,6.40
2023-01-09T01:21:09.019Z,6.40
2023-01-09T01:23:37.582Z,6.40
2023-01-09T01:26:06.464Z,6.40
2023-01-09T01:28:34.709Z,6.50
2023-01-09T01:31:04.824Z,6.50
2023-01-09T01:33:33.364Z,6.50
2023-01-09T01:36:02.476Z,6.50
2023-01-09T01:38:31.184Z,6.50
2023-01-09T01:40:59.500Z,6.50
2023-01-09T01:43:27.597Z,6.50
2023-01-09T01:45:55.752Z,6.50
2023-01-09T01:48:27.397Z,6.50
2023-01-09T01:50:57.456Z,6.50
2023-01-09T01:53:26.690Z,6.50
2023-01-09T01:56:01.976Z,6.50
2023-01-09T01:58:30.885Z,6.50
2023-01-09T02:01:00.688Z,6.50
2023-01-09T02:03:30.281Z,6.50
2023-01-09T02:05:58.391Z,6.50
2023-01-09T02:08:26.644Z,6.50
2023-01-09T02:10:54.871Z,6.50
2023-01-09T02:13:22.976Z,6.50
2023-01-09T02:16:00.046Z,6.50
2023-01-09T02:18:42.735Z,6.50
2023-01-09T02:21:14.675Z,6.50
2023-01-09T02:24:01.240Z,6.50
2023-01-09T02:27:02.002Z,6.50
2023-01-09T02:29:59.877Z,6.60
2023-01-09T02:32:37.400Z,6.60
2023-01-09T02:35:17.850Z,6.60
2023-01-09T02:37:48.329Z,6.60
2023-01-09T02:40:22.018Z,6.60
2023-01-09T02:42:50.350Z,6.60
2023-01-09T02:45:18.376Z,6.70
2023-01-09T02:47:48.448Z,6.70
2023-01-09T02:50:17.579Z,6.70
2023-01-09T02:53:10.626Z,6.70
2023-01-09T02:55:44.863Z,6.70
2023-01-09T02:58:15.768Z,6.70
2023-01-09T03:00:46.708Z,6.70
2023-01-09T03:03:20.253Z,6.70
2023-01-09T03:05:52.530Z,6.80
2023-01-09T03:08:21.767Z,6.80
2023-01-09T03:10:53.548Z,6.80
2023-01-09T03:13:23.602Z,6.80
2023-01-09T03:15:53.113Z,6.80
2023-01-09T03:18:23.723Z,6.80
2023-01-09T03:20:52.843Z,6.80
2023-01-09T03:23:20.976Z,6.90
2023-01-09T03:25:49.033Z,6.90
2023-01-09T03:28:21.882Z,6.90
2023-01-09T03:30:49.895Z,6.90
2023-01-09T03:33:17.975Z,6.90
2023-01-09T03:35:47.461Z,6.90
2023-01-09T03:38:15.476Z,6.90
2023-01-09T03:40:44.349Z,6.90
2023-01-09T03:43:12.309Z,6.90
2023-01-09T03:45:40.419Z,6.90
2023-01-09T03:48:08.549Z,6.90
2023-01-09T03:50:36.646Z,6.90
2023-01-09T03:53:06.105Z,6.90
2023-01-09T03:55:34.107Z,6.80
2023-01-09T03:58:02.398Z,6.80
2023-01-09T04:00:30.585Z,6.80
2023-01-09T04:02:58.805Z,6.70
2023-01-09T04:05:26.860Z,6.70
2023-01-09T04:07:58.726Z,6.70
2023-01-09T04:10:28.435Z,6.70
2023-01-09T04:12:56.442Z,6.70
2023-01-09T04:15:24.530Z,6.60
2023-01-09T04:17:52.689Z,6.70
2023-01-09T04:20:20.717Z,6.60
2023-01-09T04:22:48.796Z,6.60
2023-01-09T04:25:16.880Z,6.60
2023-01-09T04:27:47.669Z,6.60
2023-01-09T04:30:17.433Z,6.60
2023-01-09T04:32:45.467Z,6.50
2023-01-09T04:35:13.626Z,6.50
2023-01-09T04:37:41.663Z,6.50
2023-01-09T04:40:10.586Z,6.50
2023-01-09T04:42:38.673Z,6.50
2023-01-09T04:45:11.807Z,6.50
2023-01-09T04:47:39.884Z,6.50
2023-01-09T04:50:08.327Z,6.40
2023-01-09T04:52:38.861Z,7.80
2023-01-09T04:55:07.888Z,6.40
2023-01-09T04:57:36.081Z,6.40
2023-01-09T05:00:04.928Z,6.40
2023-01-09T05:02:34.405Z,6.40
2023-01-09T05:05:02.680Z,6.30
2023-01-09T05:07:30.667Z,6.30
2023-01-09T05:09:58.703Z,6.30
2023-01-09T05:12:26.756Z,6.30
2023-01-09T05:14:54.831Z,6.30
2023-01-09T05:17:22.946Z,6.20
2023-01-09T05:19:52.300Z,6.20
2023-01-09T05:22:20.402Z,6.20
2023-01-09T05:24:48.549Z,6.20
2023-01-09T05:27:16.568Z,6.10
2023-01-09T05:29:44.590Z,6.10
2023-01-09T05:32:12.764Z,6.10
2023-01-09T05:34:40.859Z,6.10
2023-01-09T05:37:10.338Z,6.00
2023-01-09T05:39:38.355Z,6.00
2023-01-09T05:42:06.574Z,6.00
2023-01-09T05:44:34.635Z,5.90
2023-01-09T05:47:03.077Z,5.90
2023-01-09T05:49:31.248Z,5.90
2023-01-09T05:51:59.352Z,5.90
2023-01-09T05:54:29.050Z,6.50
2023-01-09T05:56:57.144Z,5.80
2023-01-09T05:59:25.186Z,5.80
2023-01-09T06:01:54.364Z,5.80
2023-01-09T06:04:22.495Z,5.80
2023-01-09T06:06:50.579Z,5.70
2023-01-09T06:09:18.590Z,5.70
2023-01-09T06:11:47.990Z,5.60
2023-01-09T06:14:16.057Z,5.60
2023-01-09T06:16:44.098Z,5.60
2023-01-09T06:19:12.252Z,5.50
2023-01-09T06:21:40.377Z,5.50
2023-01-09T06:24:08.622Z,5.50
2023-01-09T06:26:36.799Z,5.50
2023-01-09T06:29:08.000Z,5.50
2023-01-09T06:31:36.214Z,5.40
2023-01-09T06:34:04.777Z,5.40
2023-01-09T06:36:32.994Z,5.40
2023-01-09T06:39:01.268Z,5.40
2023-01-09T06:41:29.543Z,5.40
2023-01-09T06:43:57.688Z,5.40
2023-01-09T06:46:27.251Z,5.30
2023-01-09T06:48:55.485Z,5.30
2023-01-09T06:51:23.550Z,5.30
2023-01-09T06:53:51.746Z,5.30
2023-01-09T06:56:20.435Z,5.30
2023-01-09T06:58:48.496Z,5.30
2023-01-09T07:01:16.583Z,5.30
2023-01-09T07:03:46.090Z,5.20
2023-01-09T07:06:14.173Z,5.20
2023-01-09T07:08:42.339Z,5.20
2023-01-09T07:11:10.548Z,5.20
2023-01-09T07:13:39.072Z,5.20
2023-01-09T07:16:07.708Z,5.20
2023-01-09T07:18:35.791Z,5.20
2023-01-09T07:21:06.776Z,5.20
2023-01-09T07:23:35.051Z,5.20
2023-01-09T07:26:03.241Z,5.20
2023-01-09T07:28:31.437Z,5.20
2023-01-09T07:31:01.616Z,5.20
2023-01-09T07:33:29.733Z,5.20
2023-01-09T07:35:57.855Z,5.20
2023-01-09T07:38:27.342Z,5.20
2023-01-09T07:40:55.894Z,5.30
2023-01-09T07:43:24.102Z,5.20
2023-01-09T07:45:52.179Z,5.30
2023-01-09T07:48:20.239Z,5.30
2023-01-09T07:50:48.354Z,5.30
2023-01-09T07:53:16.481Z,5.30
2023-01-09T07:55:45.978Z,5.30
2023-01-09T07:58:14.070Z,5.40
2023-01-09T08:00:42.132Z,5.40
2023-01-09T08:03:10.479Z,5.40
2023-01-09T08:05:38.597Z,5.40
2023-01-09T08:08:10.019Z,5.40
2023-01-09T08:10:38.067Z,5.40
2023-01-09T08:13:07.623Z,5.50
2023-01-09T08:15:35.842Z,5.50
2023-01-09T08:18:04.107Z,5.50
2023-01-09T08:20:32.330Z,5.50
2023-01-09T08:23:00.505Z,5.60
2023-01-09T08:25:28.708Z,5.50
2023-01-09T08:27:56.831Z,5.60
2023-01-09T08:30:26.260Z,5.60
2023-01-09T08:32:55.145Z,5.60
2023-01-09T08:35:23.196Z,5.60
2023-01-09T08:37:51.292Z,5.60
2023-01-09T08:40:20.166Z,5.60
2023-01-09T08:43:05.638Z,5.60
2023-01-09T08:46:04.669Z,5.60
2023-01-09T08:48:32.929Z,5.60
2023-01-09T08:51:01.203Z,5.60
2023-01-09T08:53:29.751Z,5.70
2023-01-09T08:55:58.009Z,5.70
2023-01-09T08:58:26.115Z,5.70
2023-01-09T09:00:55.493Z,5.70
2023-01-09T09:03:23.535Z,5.70
2023-01-09T09:05:51.776Z,5.70
2023-01-09T09:08:20.290Z,5.80
2023-01-09T09:10:48.284Z,5.80
2023-01-09T09:13:16.344Z,5.80
2023-01-09T09:15:44.450Z,5.80
2023-01-09T09:18:13.890Z,5.80
2023-01-09T09:20:41.954Z,5.80
2023-01-09T09:23:10.034Z,5.90
2023-01-09T09:25:39.359Z,5.90
2023-01-09T09:28:07.998Z,5.90
2023-01-09T09:30:36.119Z,5.90
2023-01-09T09:33:04.984Z,5.90
2023-01-09T09:35:34.865Z,5.90
2023-01-09T09:38:05.412Z,5.90
2023-01-09T09:40:45.908Z,5.90
2023-01-09T09:43:43.481Z,5.90
2023-01-09T09:46:16.504Z,5.90
2023-01-09T09:48:48.553Z,5.90
2023-01-09T09:51:24.654Z,5.90
2023-01-09T09:53:55.292Z,6.00
2023-01-09T09:56:24.575Z,6.00
2023-01-09T09:58:54.174Z,6.00
2023-01-09T10:01:23.959Z,6.00
2023-01-09T10:03:53.204Z,6.00
2023-01-09T10:06:26.292Z,6.00
2023-01-09T10:08:57.095Z,6.00
2023-01-09T10:11:28.711Z,6.00
2023-01-09T10:14:06.408Z,6.10
2023-01-09T10:16:43.064Z,6.10
2023-01-09T10:19:19.362Z,6.10
2023-01-09T10:21:52.366Z,6.10
2023-01-09T10:24:35.627Z,6.10
2023-01-09T10:27:09.731Z,6.20
2023-01-09T10:29:43.873Z,6.20
2023-01-09T10:32:19.762Z,6.30
2023-01-09T10:34:52.753Z,6.30
2023-01-09T10:37:24.269Z,5.50
2023-01-09T10:39:55.527Z,6.40
2023-01-09T10:42:30.626Z,6.40
2023-01-09T10:45:00.719Z,6.40
2023-01-09T10:47:30.185Z,6.50
2023-01-09T10:49:58.348Z,6.50
2023-01-09T10:52:31.224Z,6.50
2023-01-09T10:55:03.539Z,6.50
2023-01-09T10:57:46.446Z,6.60
2023-01-09T11:00:19.096Z,6.60
2023-01-09T11:02:48.202Z,6.60
2023-01-09T11:05:17.750Z,6.60
2023-01-09T11:07:49.491Z,6.60
2023-01-09T11:10:18.780Z,6.70
2023-01-09T11:12:47.590Z,6.70
2023-01-09T11:15:33.483Z,6.70
2023-01-09T11:18:21.315Z,6.70
2023-01-09T11:20:49.544Z,6.80
2023-01-09T11:23:38.454Z,6.80
2023-01-09T11:26:21.837Z,6.80
2023-01-09T11:29:05.369Z,6.90
2023-01-09T11:31:33.568Z,6.90
2023-01-09T11:34:01.765Z,6.90
2023-01-09T11:36:31.948Z,7.00
2023-01-09T11:39:02.687Z,7.00
2023-01-09T11:41:34.494Z,7.00
2023-01-09T11:44:03.942Z,7.00
2023-01-09T11:46:33.485Z,7.10
2023-01-09T11:49:02.730Z,7.10
2023-01-09T11:51:32.020Z,7.10
2023-01-09T11:54:04.528Z,7.10
2023-01-09T11:56:34.088Z,7.10
2023-01-09T11:59:02.088Z,7.10
2023-01-09T12:01:54.013Z,7.10
2023-01-09T12:04:25.504Z,7.00
2023-01-09T12:07:00.513Z,7.10
2023-01-09T12:09:35.004Z,7.10
2023-01-09T12:12:07.158Z,7.10
2023-01-09T12:14:43.264Z,7.10
2023-01-09T12:17:24.331Z,7.10
2023-01-09T12:20:01.081Z,7.00
2023-01-09T12:22:31.793Z,7.10
2023-01-09T12:25:18.865Z,7.10
2023-01-09T12:27:54.050Z,7.10
2023-01-09T12:30:27.293Z,7.10
2023-01-09T12:33:03.125Z,7.10
2023-01-09T12:35:34.633Z,7.10
2023-01-09T12:38:08.702Z,7.10
2023-01-09T12:40:51.011Z,7.10
2023-01-09T12:43:26.268Z,7.00
2023-01-09T12:46:00.727Z,7.10
2023-01-09T12:48:36.536Z,7.10
2023-01-09T12:51:10.222Z,7.00
2023-01-09T12:53:40.097Z,7.10
2023-01-09T12:56:10.017Z,7.00
2023-01-09T12:58:44.623Z,7.00
2023-01-09T13:01:15.792Z,7.00
2023-01-09T13:03:46.239Z,7.10
2023-01-09T13:06:16.318Z,7.10
2023-01-09T13:08:48.091Z,7.10
2023-01-09T13:11:20.799Z,7.10
2023-01-09T13:13:53.751Z,7.10
2023-01-09T13:16:23.425Z,7.10
2023-01-09T13:18:56.131Z,7.10
2023-01-09T13:21:24.282Z,7.10
2023-01-09T13:23:54.955Z,7.20
2023-01-09T13:26:25.007Z,7.10
2023-01-09T13:28:59.835Z,7.20
2023-01-09T13:31:45.678Z,7.10
2023-01-09T13:34:21.883Z,7.20
2023-01-09T13:36:52.233Z,7.20
2023-01-09T13:39:21.333Z,7.10
2023-01-09T13:42:10.684Z,7.20
2023-01-09T13:44:40.448Z,7.10
2023-01-09T13:47:17.211Z,7.10
2023-01-09T13:50:01.854Z,7.20
2023-01-09T13:52:32.048Z,7.20
2023-01-09T13:55:20.945Z,7.20
2023-01-09T13:58:04.003Z,7.20
2023-01-09T14:00:56.313Z,7.20
2023-01-09T14:03:26.907Z,7.20
2023-01-09T14:06:18.869Z,7.20
2023-01-09T14:08:48.587Z,7.20
2023-01-09T14:11:25.852Z,7.10
2023-01-09T14:14:08.235Z,7.10
2023-01-09T14:16:39.163Z,7.10
2023-01-09T14:19:17.966Z,7.10
2023-01-09T14:21:48.182Z,7.10
2023-01-09T14:24:21.175Z,7.10
2023-01-09T14:26:50.415Z,7.10
2023-01-09T14:29:37.473Z,7.10
2023-01-09T14:32:26.177Z,7.10
2023-01-09T14:34:57.650Z,7.20
2023-01-09T14:37:27.433Z,7.20
2023-01-09T14:39:56.580Z,7.20
2023-01-09T14:42:25.572Z,7.10
2023-01-09T14:44:56.693Z,7.10
2023-01-09T14:47:29.958Z,7.10
2023-01-09T14:50:00.767Z,7.10
2023-01-09T14:52:30.222Z,7.10
2023-01-09T14:54:59.511Z,7.10
2023-01-09T14:57:28.273Z,7.10
2023-01-09T14:59:57.367Z,7.10
2023-01-09T15:02:27.804Z,7.10
2023-01-09T15:04:57.899Z,7.10
2023-01-09T15:07:32.792Z,7.10
2023-01-09T15:10:02.124Z,7.10
2023-01-09T15:12:30.457Z,7.40
2023-01-09T15:15:00.466Z,7.10
2023-01-09T15:17:30.696Z,7.10
2023-01-09T15:19:59.193Z,7.10
2023-01-09T15:22:30.818Z,7.10
2023-01-09T15:24:59.073Z,7.10
2023-01-09T15:27:27.259Z,7.00
2023-01-09T15:29:55.338Z,7.10
2023-01-09T15:32:25.063Z,7.10
2023-01-09T15:34:55.696Z,7.00
2023-01-09T15:37:26.287Z,7.00
2023-01-09T15:39:56.333Z,7.00
2023-01-09T15:42:42.893Z,7.00
2023-01-09T15:45:15.333Z,7.00
2023-01-09T15:47:43.380Z,7.00
2023-01-09T15:50:14.131Z,7.00
2023-01-09T15:52:42.291Z,7.00
2023-01-09T15:55:35.665Z,7.00
2023-01-09T15:58:05.544Z,7.00
2023-01-09T16:00:35.218Z,7.00
2023-01-09T16:03:13.020Z,7.00
2023-01-09T16:05:41.369Z,7.00
2023-01-09T16:08:19.019Z,7.00
2023-01-09T16:10:50.419Z,7.00
2023-01-09T16:13:21.926Z,7.00
2023-01-09T16:15:50.354Z,7.00
2023-01-09T16:18:22.448Z,7.00
2023-01-09T16:20:51.354Z,7.20
2023-01-09T16:23:21.700Z,7.00
2023-01-09T16:25:50.004Z,7.00
2023-01-09T16:28:21.952Z,7.00
2023-01-09T16:30:54.920Z,7.00
2023-01-09T16:33:24.256Z,7.00
2023-01-09T16:35:52.874Z,7.00
2023-01-09T16:38:21.245Z,7.00
2023-01-09T16:41:18.203Z,7.00
2023-01-09T16:43:47.919Z,7.00
2023-01-09T16:46:16.868Z,7.00
2023-01-09T16:48:45.106Z,7.00
2023-01-09T16:51:15.468Z,7.00
2023-01-09T16:53:43.527Z,6.90
2023-01-09T16:56:15.162Z,6.90
2023-01-09T16:58:43.204Z,6.90
2023-01-09T17:01:13.594Z,6.90
2023-01-09T17:03:43.769Z,6.90
2023-01-09T17:06:15.869Z,6.90
2023-01-09T17:08:44.798Z,6.90
2023-01-09T17:11:19.429Z,6.90
2023-01-09T17:13:48.229Z,6.90
2023-01-09T17:16:18.077Z,6.90
2023-01-09T17:18:46.620Z,6.90
2023-01-09T17:21:18.919Z,6.90
2023-01-09T17:23:47.177Z,6.90
2023-01-09T17:26:43.045Z,6.90
2023-01-09T17:29:11.161Z,6.90
2023-01-09T17:31:40.612Z,6.90
2023-01-09T17:34:09.261Z,6.90
2023-01-09T17:36:37.569Z,6.80
2023-01-09T17:39:05.816Z,6.80
2023-01-09T17:41:33.976Z,6.80
2023-01-09T17:44:02.021Z,6.80
2023-01-09T17:46:30.662Z,6.80
2023-01-09T17:49:00.607Z,6.70
2023-01-09T17:51:29.311Z,6.70
2023-01-09T17:53:57.352Z,6.70
2023-01-09T17:56:26.414Z,6.70
2023-01-09T17:58:54.614Z,6.70
2023-01-09T18:01:22.694Z,6.70
2023-01-09T18:03:50.825Z,6.70
2023-01-09T18:06:20.880Z,6.70
2023-01-09T18:08:49.098Z,7.00
2023-01-09T18:11:18.637Z,6.70
2023-01-09T18:13:46.898Z,6.70
2023-01-09T18:16:15.724Z,6.70
2023-01-09T18:18:45.054Z,6.70
2023-01-09T18:21:15.838Z,6.70
2023-01-09T18:23:47.555Z,6.70
2023-01-09T18:26:20.642Z,6.70
2023-01-09T18:28:49.873Z,6.70
2023-01-09T18:31:22.026Z,6.70
2023-01-09T18:33:52.086Z,6.70
2023-01-09T18:36:21.882Z,6.70
2023-01-09T18:38:54.544Z,6.70
2023-01-09T18:41:22.960Z,6.60
2023-01-09T18:43:51.255Z,6.60
2023-01-09T18:46:24.076Z,6.60
2023-01-09T18:48:52.659Z,6.60
2023-01-09T18:51:21.139Z,6.60
2023-01-09T18:53:49.551Z,6.60
2023-01-09T18:56:20.510Z,6.60
2023-01-09T18:58:48.942Z,6.60
2023-01-09T19:01:17.514Z,6.60
2023-01-09T19:03:46.162Z,6.60
2023-01-09T19:06:14.275Z,6.50
2023-01-09T19:08:42.710Z,6.50
2023-01-09T19:11:10.777Z,6.50
2023-01-09T19:13:40.584Z,6.50
2023-01-09T19:16:09.171Z,6.50
2023-01-09T19:18:39.285Z,6.50
2023-01-09T19:21:10.514Z,6.50
2023-01-09T19:23:38.619Z,6.50
2023-01-09T19:26:08.797Z,6.50
2023-01-09T19:28:38.249Z,6.50
2023-01-09T19:31:07.761Z,6.50
2023-01-09T19:33:35.797Z,6.50
2023-01-09T19:36:03.883Z,6.50
2023-01-09T19:38:32.045Z,6.50
2023-01-09T19:41:09.036Z,6.40
2023-01-09T19:43:38.064Z,6.40
2023-01-09T19:46:09.592Z,6.40
2023-01-09T19:48:37.707Z,6.40
2023-01-09T19:51:06.960Z,6.40
2023-01-09T19:53:35.576Z,6.40
2023-01-09T19:56:13.488Z,6.40
2023-01-09T19:58:41.543Z,6.40
2023-01-09T20:01:12.615Z,6.50
2023-01-09T20:03:40.864Z,6.40
2023-01-09T20:06:10.085Z,6.50
2023-01-09T20:08:38.136Z,6.40
2023-01-09T20:11:06.731Z,6.40
2023-01-09T20:13:34.880Z,6.40
2023-01-09T20:16:03.671Z,6.40
2023-01-09T20:18:33.460Z,6.40
2023-01-09T20:21:01.872Z,6.40
2023-01-09T20:23:32.379Z,6.40
2023-01-09T20:26:00.986Z,6.40
2023-01-09T20:28:29.104Z,6.40
2023-01-09T20:30:57.399Z,6.40
2023-01-09T20:33:26.042Z,6.40
2023-01-09T20:35:55.541Z,6.40
2023-01-09T20:38:25.349Z,6.40
2023-01-09T20:40:53.558Z,6.40
2023-01-09T20:43:21.650Z,6.30
2023-01-09T20:45:49.826Z,6.30
2023-01-09T20:48:17.889Z,6.30
2023-01-09T20:50:45.953Z,6.30
2023-01-09T20:53:15.348Z,6.20
2023-01-09T20:55:43.433Z,6.20
2023-01-09T20:58:11.546Z,6.20
2023-01-09T21:00:39.559Z,6.20
2023-01-09T21:03:07.631Z,6.20
2023-01-09T21:05:35.681Z,6.10
2023-01-09T21:08:03.716Z,6.10
2023-01-09T21:10:33.043Z,5.60
2023-01-09T21:13:01.109Z,6.10
2023-01-09T21:15:29.287Z,6.00
2023-01-09T21:17:57.320Z,6.00
2023-01-09T21:20:25.348Z,6.00
2023-01-09T21:22:53.549Z,6.00
2023-01-09T21:25:21.632Z,6.00
2023-01-09T21:27:51.473Z,6.00
2023-01-09T21:30:19.468Z,5.90
2023-01-09T21:32:47.627Z,5.90
2023-01-09T21:35:15.908Z,5.90
2023-01-09T21:37:44.293Z,5.80
2023-01-09T21:40:15.810Z,5.80
2023-01-09T21:43:01.306Z,5.80
2023-01-09T21:45:48.471Z,5.80
2023-01-09T21:48:16.559Z,5.80
2023-01-09T21:50:44.595Z,5.80
2023-01-09T21:53:12.751Z,5.70
2023-01-09T21:55:40.863Z,5.70
2023-01-09T21:58:08.973Z,5.70
2023-01-09T22:00:39.345Z,5.70
2023-01-09T22:03:09.245Z,5.70
2023-01-09T22:05:37.555Z,5.70
2023-01-09T22:08:05.681Z,5.60
2023-01-09T22:10:33.692Z,5.60
2023-01-09T22:13:17.808Z,5.60
2023-01-09T22:15:48.188Z,5.60
2023-01-09T22:18:16.229Z,5.60
2023-01-09T22:20:45.731Z,5.60
2023-01-09T22:23:13.885Z,5.60
2023-01-09T22:25:42.654Z,5.60
2023-01-09T22:28:11.201Z,5.60
2023-01-09T22:30:40.102Z,5.50
2023-01-09T22:33:11.158Z,5.50
2023-01-09T22:35:39.562Z,5.50
2023-01-09T22:38:07.896Z,5.50
2023-01-09T22:40:37.384Z,5.40
2023-01-09T22:43:06.027Z,5.50
2023-01-09T22:45:34.332Z,5.40
2023-01-09T22:48:02.443Z,5.40
2023-01-09T22:50:31.922Z,5.40
2023-01-09T22:53:00.033Z,5.40
2023-01-09T22:55:28.091Z,5.40
2023-01-09T22:57:56.133Z,5.30
2023-01-09T23:00:24.163Z,5.30
2023-01-09T23:02:52.402Z,5.30
2023-01-09T23:05:20.568Z,5.30
2023-01-09T23:07:49.975Z,5.30
2023-01-09T23:10:18.139Z,5.30
2023-01-09T23:12:48.546Z,5.20
2023-01-09T23:15:16.638Z,5.30
2023-01-09T23:17:45.003Z,5.20
2023-01-09T23:20:13.242Z,5.20
2023-01-09T23:22:41.257Z,5.20
2023-01-09T23:25:14.272Z,5.30
2023-01-09T23:27:42.387Z,5.30
2023-01-09T23:30:11.088Z,5.30
2023-01-09T23:32:39.826Z,5.20
2023-01-09T23:35:08.310Z,5.20
2023-01-09T23:37:36.879Z,5.30
2023-01-09T23:40:05.329Z,5.20
2023-01-09T23:42:55.241Z,5.20
2023-01-09T23:45:23.978Z,5.20
2023-01-09T23:47:52.518Z,5.20
2023-01-09T23:50:20.547Z,5.20
2023-01-09T23:52:48.722Z,5.30
2023-01-09T23:55:16.918Z,5.20
2023-01-09T23:57:46.467Z,5.20
